Time;durP1;ratioP1;P1;durP2;ratioP2;P2;SDS_P1;SDS_P2;PMS_P1;PMS_P2;Temp;Humidity;BMP_temperature;BMP_pressure;BME280_temperature;BME280_humidity;BME280_pressure;Samples;Min_cycle;Max_cycle;Signal;HPM_P1;HPM_P2
2023/01/11 00:00:41;;;;;;;;;;;10.10;91.10;;;;;;5013364;28;20313;-33
2023/01/11 00:03:07;;;;;;;;;;;10.10;91.10;;;;;;5013312;28;20272;-30
2023/01/11 00:05:36;;;;;;;;;;;10.10;91.10;;;;;;5012393;28;19996;-30
2023/01/11 00:08:03;;;;;;;;;;;10.10;91.10;;;;;;5013161;28;19930;-34
2023/01/11 00:10:29;;;;;;;;;;;10.10;91.10;;;;;;5012714;28;19913;-33
2023/01/11 00:12:54;;;;;;;;;;;10.20;91.10;;;;;;5012877;28;19921;-28
2023/01/11 00:15:20;;;;;;;;;;;10.20;91.10;;;;;;5013026;28;19957;-28
2023/01/11 00:17:45;;;;;;;;;;;10.20;91.10;;;;;;5012810;28;20409;-28
2023/01/11 00:20:11;;;;;;;;;;;10.20;91.10;;;;;;5012718;28;19913;-28
2023/01/11 00:22:37;;;;;;;;;;;10.30;91.10;;;;;;5012905;28;20376;-32
2023/01/11 00:25:02;;;;;;;;;;;10.30;91.10;;;;;;5012982;28;19921;-30
2023/01/11 00:27:28;;;;;;;;;;;10.30;91.10;;;;;;5012607;28;19920;-28
2023/01/11 00:29:53;;;;;;;;;;;10.30;91.10;;;;;;5012552;28;20515;-30
2023/01/11 00:32:19;;;;;;;;;;;10.30;91.10;;;;;;5012429;28;19917;-31
2023/01/11 00:34:44;;;;;;;;;;;10.40;91.20;;;;;;4994844;28;19913;-36
2023/01/11 00:37:10;;;;;;;;;;;10.40;91.10;;;;;;5012435;28;19913;-28
2023/01/11 00:39:35;;;;;;;;;;;10.40;91.10;;;;;;5012501;28;19917;-29
2023/01/11 00:50:13;;;;;;;;;;;10.50;91.20;;;;;;5012284;28;20043;-40
2023/01/11 00:52:39;;;;;;;;;;;10.50;91.10;;;;;;5012375;28;20000;-33
2023/01/11 00:55:04;;;;;;;;;;;10.50;91.10;;;;;;4994616;28;19913;-28
2023/01/11 00:57:30;;;;;;;;;;;10.60;91.10;;;;;;5012484;28;19914;-27
2023/01/11 00:59:55;;;;;;;;;;;10.60;91.10;;;;;;5012100;28;19914;-38
2023/01/11 01:02:21;;;;;;;;;;;10.60;91.10;;;;;;5012076;28;20428;-30
2023/01/11 01:04:46;;;;;;;;;;;10.60;91.10;;;;;;5012219;28;19914;-28
2023/01/11 01:07:12;;;;;;;;;;;10.60;91.20;;;;;;5012001;28;20020;-28
2023/01/11 01:09:38;;;;;;;;;;;10.60;91.10;;;;;;5012211;28;19914;-31
2023/01/11 01:12:05;;;;;;;;;;;10.70;91.20;;;;;;5011768;28;20423;-28
2023/01/11 01:14:32;;;;;;;;;;;10.60;91.20;;;;;;5012101;28;20381;-28
2023/01/11 01:16:57;;;;;;;;;;;10.60;91.20;;;;;;5014182;28;19921;-27
2023/01/11 01:19:23;;;;;;;;;;;10.60;91.20;;;;;;5016216;28;19961;-29
2023/01/11 01:21:49;;;;;;;;;;;10.70;91.20;;;;;;5015943;28;20008;-27
2023/01/11 01:24:15;;;;;;;;;;;10.70;91.20;;;;;;4998133;28;19921;-27
2023/01/11 01:26:40;;;;;;;;;;;10.70;91.20;;;;;;5015807;28;20060;-28
2023/01/11 01:29:06;;;;;;;;;;;10.70;91.20;;;;;;5015769;28;19918;-40
2023/01/11 01:31:31;;;;;;;;;;;10.70;91.20;;;;;;5015993;28;20016;-28
2023/01/11 01:33:57;;;;;;;;;;;10.70;91.20;;;;;;5015576;28;20403;-27
2023/01/11 01:36:22;;;;;;;;;;;10.70;91.20;;;;;;5015762;28;19980;-29
2023/01/11 01:38:48;;;;;;;;;;;10.70;91.20;;;;;;5016062;28;19913;-28
2023/01/11 01:41:14;;;;;;;;;;;10.80;91.30;;;;;;5016028;28;19914;-41
2023/01/11 01:43:47;;;;;;;;;;;10.80;91.30;;;;;;5015782;28;19925;-27
2023/01/11 01:46:13;;;;;;;;;;;10.80;91.30;;;;;;5015617;28;19918;-34
2023/01/11 01:48:40;;;;;;;;;;;10.80;91.30;;;;;;5015411;28;19914;-28
2023/01/11 01:51:07;;;;;;;;;;;10.80;91.30;;;;;;5015305;28;19917;-27
2023/01/11 01:53:35;;;;;;;;;;;10.80;91.30;;;;;;5015294;28;20012;-29
2023/01/11 01:56:03;;;;;;;;;;;10.80;91.40;;;;;;5015628;28;19918;-30
2023/01/11 01:58:34;;;;;;;;;;;10.80;91.40;;;;;;5015190;28;19913;-28
2023/01/11 02:01:45;;;;;;;;;;;10.90;91.40;;;;;;5015328;28;19960;-27
2023/01/11 02:03:46;;;;;;;;;;;10.90;91.60;;;;;;5014987;28;19980;-30
2023/01/11 02:06:11;;;;;;;;;;;10.90;91.60;;;;;;5015223;28;19917;-29
2023/01/11 02:08:39;;;;;;;;;;;10.90;91.50;;;;;;5015048;28;20419;-28
2023/01/11 02:11:28;;;;;;;;;;;10.90;91.50;;;;;;5015029;28;19918;-28
2023/01/11 02:13:50;;;;;;;;;;;10.90;91.50;;;;;;5015012;28;20005;-28
2023/01/11 02:16:16;;;;;;;;;;;10.90;91.50;;;;;;5014982;28;19979;-35
2023/01/11 02:18:41;;;;;;;;;;;10.90;91.50;;;;;;5015099;28;19914;-28
2023/01/11 02:21:20;;;;;;;;;;;10.90;91.50;;;;;;5015095;28;19939;-31
2023/01/11 02:24:08;;;;;;;;;;;10.90;91.60;;;;;;5015173;28;19917;-28
2023/01/11 02:26:48;;;;;;;;;;;11.00;91.50;;;;;;5014895;28;19914;-28
2023/01/11 02:29:27;;;;;;;;;;;11.00;91.50;;;;;;5014140;28;20399;-29
2023/01/11 02:31:58;;;;;;;;;;;11.00;91.50;;;;;;5015049;28;19972;-32
2023/01/11 02:34:43;;;;;;;;;;;11.00;91.50;;;;;;5014548;28;20028;-31
2023/01/11 02:37:26;;;;;;;;;;;11.00;91.50;;;;;;5014856;28;19913;-31
2023/01/11 02:39:57;;;;;;;;;;;11.00;91.50;;;;;;5014669;28;19933;-32
2023/01/11 02:45:16;;;;;;;;;;;11.10;91.50;;;;;;5014934;28;19941;-29
2023/01/11 02:47:48;;;;;;;;;;;11.10;91.60;;;;;;5014584;28;19920;-35
2023/01/11 02:50:22;;;;;;;;;;;11.10;91.50;;;;;;5014618;28;19920;-33
2023/01/11 02:52:51;;;;;;;;;;;11.10;91.50;;;;;;5014296;28;19996;-28
2023/01/11 02:55:19;;;;;;;;;;;11.10;91.60;;;;;;5014564;28;19929;-30
2023/01/11 02:57:45;;;;;;;;;;;11.10;91.60;;;;;;5014279;28;19961;-28
2023/01/11 03:00:11;;;;;;;;;;;11.10;91.60;;;;;;5014285;28;19926;-28
2023/01/11 03:02:37;;;;;;;;;;;11.10;91.60;;;;;;5014484;28;19936;-28
2023/01/11 03:05:09;;;;;;;;;;;11.20;91.60;;;;;;5014561;28;19913;-32
2023/01/11 03:07:57;;;;;;;;;;;11.10;91.70;;;;;;5014128;28;20270;-27
2023/01/11 03:10:32;;;;;;;;;;;11.20;91.70;;;;;;5013575;28;20012;-29
2023/01/11 03:13:22;;;;;;;;;;;11.20;91.70;;;;;;5014191;28;19952;-27
2023/01/11 03:16:03;;;;;;;;;;;11.20;91.70;;;;;;5014112;28;20376;-28
2023/01/11 03:18:34;;;;;;;;;;;11.20;91.70;;;;;;5014302;28;19909;-27
2023/01/11 03:21:00;;;;;;;;;;;11.20;91.80;;;;;;5014507;28;19917;-28
2023/01/11 03:23:31;;;;;;;;;;;11.30;91.80;;;;;;5013835;28;20399;-31
2023/01/11 03:26:01;;;;;;;;;;;11.30;91.80;;;;;;5013835;28;19916;-29
2023/01/11 03:28:29;;;;;;;;;;;11.30;91.80;;;;;;5013770;28;20335;-30
2023/01/11 03:31:14;;;;;;;;;;;11.30;91.80;;;;;;5013898;28;19913;-30
2023/01/11 03:33:53;;;;;;;;;;;11.30;91.80;;;;;;5013576;28;19921;-28
2023/01/11 03:36:22;;;;;;;;;;;11.30;91.80;;;;;;5013550;28;19909;-28
2023/01/11 03:39:03;;;;;;;;;;;11.30;91.80;;;;;;5013685;28;19957;-28
2023/01/11 03:41:32;;;;;;;;;;;11.30;91.80;;;;;;5012910;28;19916;-28
2023/01/11 03:43:58;;;;;;;;;;;11.40;91.80;;;;;;5013536;28;19917;-29
2023/01/11 03:46:30;;;;;;;;;;;11.40;91.90;;;;;;5013488;28;19910;-27
2023/01/11 03:49:03;;;;;;;;;;;11.40;91.90;;;;;;5013697;28;19910;-43
2023/01/11 03:51:31;;;;;;;;;;;11.40;92.00;;;;;;5013294;28;19920;-33
2023/01/11 03:53:59;;;;;;;;;;;11.40;91.90;;;;;;5013390;28;19910;-30
2023/01/11 03:56:29;;;;;;;;;;;11.40;92.00;;;;;;5013290;28;20415;-28
2023/01/11 03:58:54;;;;;;;;;;;11.40;92.00;;;;;;4995591;28;19972;-31
2023/01/11 04:01:20;;;;;;;;;;;11.40;92.00;;;;;;5013556;28;19909;-28
2023/01/11 04:03:45;;;;;;;;;;;11.40;91.90;;;;;;5013039;28;20413;-30
2023/01/11 04:06:11;;;;;;;;;;;11.50;92.00;;;;;;5013497;28;20277;-28
2023/01/11 04:08:37;;;;;;;;;;;11.50;92.00;;;;;;5013309;28;19913;-30
2023/01/11 04:11:03;;;;;;;;;;;11.50;92.00;;;;;;5012944;28;20454;-27
2023/01/11 04:13:29;;;;;;;;;;;11.50;92.00;;;;;;5013169;28;19916;-28
2023/01/11 04:15:54;;;;;;;;;;;11.50;92.00;;;;;;5013141;28;20280;-29
2023/01/11 04:18:20;;;;;;;;;;;11.50;92.00;;;;;;5013052;28;19910;-28
2023/01/11 04:20:45;;;;;;;;;;;11.50;92.00;;;;;;5013053;28;19913;-29
2023/01/11 04:23:11;;;;;;;;;;;11.50;92.00;;;;;;5012725;28;20013;-28
2023/01/11 04:25:36;;;;;;;;;;;11.60;92.00;;;;;;5013024;28;19916;-29
2023/01/11 04:28:02;;;;;;;;;;;11.60;92.00;;;;;;5012766;28;19913;-29
2023/01/11 04:30:27;;;;;;;;;;;11.60;92.10;;;;;;5012650;28;20242;-34
2023/01/11 04:32:55;;;;;;;;;;;11.60;92.10;;;;;;4994808;28;20282;-30
2023/01/11 04:35:21;;;;;;;;;;;11.60;92.10;;;;;;5012527;28;20341;-29
2023/01/11 04:37:46;;;;;;;;;;;11.60;92.10;;;;;;5012486;28;19910;-28
2023/01/11 04:40:12;;;;;;;;;;;11.60;92.10;;;;;;5012801;28;20400;-27
2023/01/11 04:42:37;;;;;;;;;;;11.60;92.20;;;;;;5012449;28;19910;-28
2023/01/11 04:45:06;;;;;;;;;;;11.60;92.10;;;;;;5012519;28;19909;-28
2023/01/11 04:47:32;;;;;;;;;;;11.70;92.20;;;;;;5013031;28;20389;-27
2023/01/11 04:49:57;;;;;;;;;;;11.70;92.20;;;;;;5012344;28;19909;-29
2023/01/11 04:52:23;;;;;;;;;;;11.70;92.20;;;;;;5012038;28;19913;-28
2023/01/11 04:54:51;;;;;;;;;;;11.70;92.20;;;;;;5012321;28;20373;-31
2023/01/11 04:57:16;;;;;;;;;;;11.70;92.30;;;;;;5012640;28;20412;-28
2023/01/11 04:59:42;;;;;;;;;;;11.80;92.40;;;;;;5012326;28;19956;-32
2023/01/11 05:02:07;;;;;;;;;;;11.70;92.30;;;;;;5012718;28;19914;-29
2023/01/11 05:04:33;;;;;;;;;;;11.80;92.30;;;;;;5012522;28;20406;-30
2023/01/11 05:06:58;;;;;;;;;;;11.80;92.40;;;;;;4994687;28;19916;-34
2023/01/11 05:09:24;;;;;;;;;;;11.80;92.40;;;;;;5012693;28;19909;-32
2023/01/11 05:11:49;;;;;;;;;;;11.80;92.30;;;;;;5012260;28;19920;-29
2023/01/11 05:14:15;;;;;;;;;;;11.80;92.40;;;;;;5012762;28;20322;-28
2023/01/11 05:16:41;;;;;;;;;;;11.80;92.40;;;;;;5012580;28;19979;-28
2023/01/11 05:19:08;;;;;;;;;;;11.80;92.50;;;;;;5012209;28;19960;-39
2023/01/11 05:21:34;;;;;;;;;;;11.80;92.50;;;;;;5012571;28;19984;-34
2023/01/11 05:24:01;;;;;;;;;;;11.80;92.50;;;;;;5012500;28;20411;-30
2023/01/11 05:26:31;;;;;;;;;;;11.80;92.50;;;;;;5012328;28;19921;-30
2023/01/11 05:28:58;;;;;;;;;;;11.80;92.40;;;;;;5012530;28;19984;-29
2023/01/11 05:31:23;;;;;;;;;;;11.80;92.40;;;;;;5012197;28;20399;-32
2023/01/11 05:33:49;;;;;;;;;;;11.90;92.40;;;;;;5011937;28;19921;-27
2023/01/11 05:36:15;;;;;;;;;;;11.80;92.40;;;;;;5012215;28;19909;-32
2023/01/11 05:38:41;;;;;;;;;;;11.80;92.40;;;;;;5012440;28;20407;-28
2023/01/11 05:41:08;;;;;;;;;;;11.90;92.50;;;;;;5012073;28;19906;-30
2023/01/11 05:45:27;;;;;;;;;;;11.90;92.50;;;;;;5011958;28;19917;-32
2023/01/11 05:46:23;;;;;;;;;;;11.80;92.50;;;;;;5012056;28;19917;-28
2023/01/11 05:48:49;;;;;;;;;;;11.80;92.50;;;;;;5011943;28;19980;-30
2023/01/11 05:51:14;;;;;;;;;;;11.90;92.50;;;;;;5011960;28;19913;-30
2023/01/11 05:53:40;;;;;;;;;;;11.90;92.50;;;;;;5011982;28;19910;-40
2023/01/11 05:56:06;;;;;;;;;;;11.80;92.50;;;;;;5012067;28;19948;-30
2023/01/11 05:58:31;;;;;;;;;;;11.90;92.50;;;;;;5011995;28;19909;-29
2023/01/11 06:00:57;;;;;;;;;;;11.90;92.50;;;;;;4994258;28;19910;-28
2023/01/11 06:03:23;;;;;;;;;;;11.80;92.50;;;;;;5013072;28;19910;-29
2023/01/11 06:05:49;;;;;;;;;;;11.80;92.50;;;;;;5015579;28;19910;-29
2023/01/11 06:08:14;;;;;;;;;;;11.80;92.50;;;;;;5015868;28;19909;-30
2023/01/11 06:10:40;;;;;;;;;;;11.80;92.50;;;;;;5015517;28;20004;-33
2023/01/11 06:15:50;;;;;;;;;;;11.90;92.40;;;;;;5015677;28;19916;-30
2023/01/11 06:18:15;;;;;;;;;;;11.80;92.40;;;;;;5015335;28;19914;-31
2023/01/11 06:20:41;;;;;;;;;;;11.80;92.40;;;;;;5015297;28;19914;-29
2023/01/11 06:23:06;;;;;;;;;;;11.80;92.40;;;;;;5015603;28;19909;-29
2023/01/11 06:25:33;;;;;;;;;;;11.80;92.70;;;;;;5015173;28;19946;-30
2023/01/11 06:27:59;;;;;;;;;;;11.80;92.40;;;;;;4997418;28;19909;-28
2023/01/11 06:30:24;;;;;;;;;;;11.70;92.40;;;;;;5015518;28;20274;-31
2023/01/11 06:32:51;;;;;;;;;;;11.70;92.40;;;;;;5015069;28;19965;-34
2023/01/11 06:35:16;;;;;;;;;;;11.70;92.40;;;;;;5015095;28;20034;-37
2023/01/11 06:37:41;;;;;;;;;;;11.70;92.30;;;;;;5015107;28;19959;-28
2023/01/11 06:40:07;;;;;;;;;;;11.70;92.30;;;;;;5014984;28;19971;-29
2023/01/11 06:42:33;;;;;;;;;;;11.70;92.30;;;;;;5015212;28;19963;-29
2023/01/11 06:44:58;;;;;;;;;;;11.70;92.30;;;;;;5015128;28;19910;-34
2023/01/11 06:47:24;;;;;;;;;;;11.60;92.20;;;;;;5014952;28;20305;-29
2023/01/11 06:49:49;;;;;;;;;;;11.60;92.20;;;;;;5014969;28;20326;-31
2023/01/11 06:52:15;;;;;;;;;;;11.60;92.20;;;;;;5014730;28;19952;-35
2023/01/11 06:54:40;;;;;;;;;;;11.50;92.10;;;;;;5014956;28;20377;-27
2023/01/11 06:57:05;;;;;;;;;;;11.50;92.20;;;;;;5014631;28;20173;-30
2023/01/11 06:59:31;;;;;;;;;;;11.50;92.10;;;;;;5014651;28;19960;-28
2023/01/11 07:01:57;;;;;;;;;;;11.50;92.10;;;;;;5014448;28;19913;-29
2023/01/11 07:04:23;;;;;;;;;;;11.40;92.00;;;;;;5014690;28;19915;-31
2023/01/11 07:06:48;;;;;;;;;;;11.40;92.00;;;;;;5014563;28;20367;-29
2023/01/11 07:09:14;;;;;;;;;;;11.40;92.00;;;;;;5013968;28;19913;-28
2023/01/11 07:11:39;;;;;;;;;;;11.40;92.00;;;;;;5014161;28;19913;-30
2023/01/11 07:14:05;;;;;;;;;;;11.40;92.00;;;;;;5014221;28;20000;-29
2023/01/11 07:16:30;;;;;;;;;;;11.30;91.90;;;;;;5014694;28;19910;-34
2023/01/11 07:18:56;;;;;;;;;;;11.30;91.90;;;;;;5014093;28;19913;-28
2023/01/11 07:21:21;;;;;;;;;;;11.30;91.80;;;;;;5014408;28;19945;-30
2023/01/11 07:23:47;;;;;;;;;;;11.30;91.80;;;;;;5014045;28;19909;-31
2023/01/11 07:26:15;;;;;;;;;;;11.30;91.80;;;;;;5014109;28;19916;-28
2023/01/11 07:28:41;;;;;;;;;;;11.20;91.70;;;;;;5014170;28;19909;-34
2023/01/11 07:31:07;;;;;;;;;;;11.20;91.70;;;;;;5013864;28;20254;-33
2023/01/11 07:33:32;;;;;;;;;;;11.20;91.60;;;;;;5013737;28;20349;-31
2023/01/11 07:35:59;;;;;;;;;;;11.20;91.60;;;;;;5013936;28;19959;-29
2023/01/11 07:38:27;;;;;;;;;;;11.10;91.60;;;;;;5013855;28;19910;-29
2023/01/11 07:40:52;;;;;;;;;;;11.10;91.60;;;;;;5014025;28;19913;-30
2023/01/11 07:43:21;;;;;;;;;;;11.10;91.60;;;;;;5013662;28;19979;-31
2023/01/11 07:45:48;;;;;;;;;;;11.10;91.60;;;;;;5013936;28;20285;-28
2023/01/11 07:48:15;;;;;;;;;;;11.10;91.60;;;;;;5013771;28;19932;-28
2023/01/11 07:50:41;;;;;;;;;;;11.10;91.50;;;;;;5013395;28;19952;-32
2023/01/11 07:53:07;;;;;;;;;;;11.00;91.50;;;;;;5013394;28;19961;-37
2023/01/11 07:55:33;;;;;;;;;;;11.00;91.50;;;;;;5013326;28;19910;-29
2023/01/11 07:57:58;;;;;;;;;;;11.00;91.40;;;;;;5013407;28;19932;-31
2023/01/11 08:00:24;;;;;;;;;;;11.00;91.40;;;;;;5013632;28;19914;-37
2023/01/11 08:02:53;;;;;;;;;;;11.00;91.40;;;;;;5013294;28;19913;-30
2023/01/11 08:05:19;;;;;;;;;;;11.00;91.40;;;;;;5013148;28;19909;-29
2023/01/11 08:07:45;;;;;;;;;;;11.00;91.30;;;;;;5013307;28;19916;-30
2023/01/11 08:10:10;;;;;;;;;;;11.00;91.40;;;;;;5013592;28;19955;-34
2023/01/11 08:15:30;;;;;;;;;;;10.90;91.30;;;;;;5013392;28;19917;-28
2023/01/11 08:17:55;;;;;;;;;;;10.90;91.20;;;;;;5013261;28;20373;-31
2023/01/11 08:20:21;;;;;;;;;;;10.90;91.20;;;;;;5013376;28;20329;-34
2023/01/11 08:22:47;;;;;;;;;;;10.90;91.10;;;;;;5013034;28;19917;-29
2023/01/11 08:25:12;;;;;;;;;;;10.80;91.00;;;;;;5013021;28;20358;-29
2023/01/11 08:27:38;;;;;;;;;;;10.80;90.80;;;;;;5012438;28;19956;-29
2023/01/11 08:30:04;;;;;;;;;;;10.80;90.90;;;;;;5012910;28;19956;-29
2023/01/11 08:32:29;;;;;;;;;;;10.80;90.90;;;;;;5012576;28;19928;-28
2023/01/11 08:34:55;;;;;;;;;;;10.70;90.90;;;;;;5013155;28;20421;-37
2023/01/11 08:37:20;;;;;;;;;;;10.80;90.90;;;;;;5012640;28;20043;-30
2023/01/11 08:39:47;;;;;;;;;;;10.70;90.90;;;;;;5012560;28;20350;-35
2023/01/11 08:42:12;;;;;;;;;;;10.70;90.90;;;;;;5012811;28;20377;-29
2023/01/11 08:44:38;;;;;;;;;;;10.70;90.90;;;;;;5012440;28;20060;-28
2023/01/11 08:47:03;;;;;;;;;;;10.70;90.90;;;;;;5012859;28;19936;-29
2023/01/11 08:49:29;;;;;;;;;;;10.70;90.70;;;;;;5012688;28;19914;-31
2023/01/11 08:51:55;;;;;;;;;;;10.70;90.70;;;;;;5012399;28;19925;-34
2023/01/11 08:54:20;;;;;;;;;;;10.60;90.60;;;;;;5012470;28;19919;-31
2023/01/11 08:56:46;;;;;;;;;;;10.60;90.60;;;;;;5012612;28;19922;-34
2023/01/11 08:59:12;;;;;;;;;;;10.60;90.70;;;;;;5012415;28;19959;-29
2023/01/11 09:01:38;;;;;;;;;;;10.60;90.70;;;;;;5012300;28;20237;-36
2023/01/11 09:04:03;;;;;;;;;;;10.60;90.50;;;;;;5012460;28;19913;-32
2023/01/11 09:06:29;;;;;;;;;;;10.60;90.60;;;;;;5012171;28;19914;-32
2023/01/11 09:08:54;;;;;;;;;;;10.50;90.60;;;;;;5012487;28;19914;-34
2023/01/11 09:12:05;;;;;;;;;;;10.50;90.60;;;;;;4994559;28;20265;-32
2023/01/11 09:14:06;;;;;;;;;;;10.50;90.70;;;;;;5001532;28;19975;-30
2023/01/11 09:16:31;;;;;;;;;;;10.40;91.00;;;;;;5012078;28;19917;-31
2023/01/11 09:18:57;;;;;;;;;;;10.40;90.70;;;;;;5012119;28;19914;-33
2023/01/11 09:21:22;;;;;;;;;;;10.40;90.80;;;;;;5011866;28;19913;-30
2023/01/11 09:23:48;;;;;;;;;;;10.40;90.80;;;;;;5012180;28;19920;-31
2023/01/11 09:26:14;;;;;;;;;;;10.40;90.70;;;;;;5012546;28;19914;-32
2023/01/11 09:28:40;;;;;;;;;;;10.40;90.80;;;;;;5012072;28;19913;-32
2023/01/11 09:31:06;;;;;;;;;;;10.30;90.70;;;;;;5012089;28;19932;-29
2023/01/11 09:33:33;;;;;;;;;;;10.30;90.70;;;;;;5011997;28;20016;-29
2023/01/11 09:36:00;;;;;;;;;;;10.30;90.60;;;;;;5012457;28;19913;-30
2023/01/11 09:38:28;;;;;;;;;;;10.30;90.70;;;;;;5013422;28;19918;-29
2023/01/11 09:41:00;;;;;;;;;;;10.20;90.70;;;;;;5016233;28;20258;-29
2023/01/11 09:43:27;;;;;;;;;;;10.20;90.60;;;;;;5015339;28;20293;-33
2023/01/11 09:45:55;;;;;;;;;;;10.10;90.70;;;;;;5016197;28;19920;-35
2023/01/11 09:48:34;;;;;;;;;;;10.10;90.70;;;;;;4998221;28;19913;-34
2023/01/11 09:51:00;;;;;;;;;;;10.10;90.70;;;;;;5015667;28;19918;-28
2023/01/11 09:53:31;;;;;;;;;;;10.00;90.70;;;;;;5015659;28;19913;-29
2023/01/11 09:55:59;;;;;;;;;;;9.90;90.70;;;;;;5015995;28;20027;-30
2023/01/11 09:58:45;;;;;;;;;;;9.90;90.70;;;;;;5015610;28;19913;-29
2023/01/11 10:01:11;;;;;;;;;;;9.90;90.80;;;;;;5015762;28;19913;-28
2023/01/11 10:03:57;;;;;;;;;;;9.80;90.80;;;;;;5015578;28;19940;-28
2023/01/11 10:06:41;;;;;;;;;;;9.80;90.80;;;;;;5015827;28;20004;-28
2023/01/11 10:09:12;;;;;;;;;;;9.80;90.80;;;;;;5015736;28;19953;-31
2023/01/11 10:11:39;;;;;;;;;;;9.90;90.90;;;;;;5015641;28;19925;-34
2023/01/11 10:14:10;;;;;;;;;;;9.80;90.80;;;;;;5015203;28;19959;-27
2023/01/11 10:16:59;;;;;;;;;;;9.90;90.80;;;;;;5015512;28;19960;-29
2023/01/11 10:19:30;;;;;;;;;;;9.90;90.70;;;;;;5007091;28;19921;-33
2023/01/11 10:21:59;;;;;;;;;;;10.00;90.70;;;;;;5015574;28;19913;-30
2023/01/11 10:24:36;;;;;;;;;;;10.00;90.70;;;;;;5015463;28;20396;-31
2023/01/11 10:27:07;;;;;;;;;;;10.00;90.60;;;;;;5015464;28;19914;-33
2023/01/11 10:29:57;;;;;;;;;;;10.00;90.60;;;;;;4998187;28;19949;-32
2023/01/11 10:32:39;;;;;;;;;;;10.10;90.60;;;;;;5015338;28;19921;-31
2023/01/11 10:35:35;;;;;;;;;;;10.20;90.60;;;;;;5015422;28;20300;-29
2023/01/11 10:38:22;;;;;;;;;;;10.20;90.60;;;;;;5014898;28;19956;-33
2023/01/11 10:41:11;;;;;;;;;;;10.40;90.40;;;;;;5015070;28;19914;-33
2023/01/11 10:43:40;;;;;;;;;;;10.50;90.40;;;;;;5014970;28;19918;-31
2023/01/11 10:46:09;;;;;;;;;;;10.60;90.10;;;;;;5014809;28;19917;-29
2023/01/11 10:48:39;;;;;;;;;;;10.70;90.00;;;;;;5014472;28;19914;-29
2023/01/11 10:51:28;;;;;;;;;;;10.70;89.50;;;;;;4996758;28;19920;-29
2023/01/11 10:53:53;;;;;;;;;;;10.80;89.40;;;;;;5014606;28;19913;-29
2023/01/11 10:56:23;;;;;;;;;;;10.80;89.10;;;;;;5014806;28;19913;-30
2023/01/11 10:59:02;;;;;;;;;;;10.90;89.20;;;;;;5014265;28;19913;-29
2023/01/11 11:01:37;;;;;;;;;;;10.90;89.00;;;;;;5014461;28;20282;-28
2023/01/11 11:04:18;;;;;;;;;;;10.90;88.70;;;;;;5014377;28;19953;-29
2023/01/11 11:07:06;;;;;;;;;;;10.90;88.70;;;;;;5014255;28;20021;-29
2023/01/11 11:09:51;;;;;;;;;;;11.00;88.50;;;;;;5006002;28;19914;-29
2023/01/11 11:12:16;;;;;;;;;;;11.00;88.40;;;;;;5014219;28;19921;-30
2023/01/11 11:15:00;;;;;;;;;;;11.00;88.20;;;;;;5014126;28;19940;-30
2023/01/11 11:17:34;;;;;;;;;;;11.00;87.80;;;;;;5014495;28;19924;-40
2023/01/11 11:20:01;;;;;;;;;;;11.00;87.20;;;;;;5014553;28;20012;-35
2023/01/11 11:22:26;;;;;;;;;;;11.00;87.30;;;;;;4996278;28;19976;-32
2023/01/11 11:24:56;;;;;;;;;;;11.00;86.70;;;;;;5013996;28;20349;-30
2023/01/11 11:27:31;;;;;;;;;;;10.90;86.50;;;;;;5013915;28;20008;-31
2023/01/11 11:29:57;;;;;;;;;;;10.90;86.30;;;;;;5013964;28;19920;-29
2023/01/11 11:32:30;;;;;;;;;;;10.90;86.30;;;;;;5014012;28;19917;-35
2023/01/11 11:34:56;;;;;;;;;;;10.90;86.40;;;;;;5014068;28;20261;-30
2023/01/11 11:37:31;;;;;;;;;;;11.00;86.20;;;;;;5014073;28;19924;-29
2023/01/11 11:39:56;;;;;;;;;;;10.90;85.80;;;;;;5014026;28;19971;-31
2023/01/11 11:42:22;;;;;;;;;;;10.90;86.10;;;;;;5014044;28;19914;-30
2023/01/11 11:45:23;;;;;;;;;;;10.90;85.60;;;;;;5013857;28;19992;-40
2023/01/11 11:47:59;;;;;;;;;;;10.90;84.90;;;;;;4952869;29;19915;-32
2023/01/11 11:50:25;;;;;;;;;;;10.90;84.90;;;;;;5005168;28;19920;-55
2023/01/11 11:52:59;;;;;;;;;;;10.90;84.80;;;;;;5013370;28;20381;-30
2023/01/11 11:55:27;;;;;;;;;;;10.90;84.90;;;;;;5013807;28;20365;-30
2023/01/11 11:57:53;;;;;;;;;;;10.90;84.80;;;;;;5013295;28;19913;-29
2023/01/11 12:00:22;;;;;;;;;;;10.80;83.90;;;;;;5012898;28;19917;-35
2023/01/11 12:02:59;;;;;;;;;;;10.80;83.80;;;;;;5013173;28;19913;-33
2023/01/11 12:05:24;;;;;;;;;;;10.80;83.70;;;;;;5013388;28;19913;-40
2023/01/11 12:07:51;;;;;;;;;;;10.90;83.90;;;;;;5013338;28;19937;-38
2023/01/11 12:10:21;;;;;;;;;;;10.90;83.90;;;;;;5013516;28;19921;-33
2023/01/11 12:12:51;;;;;;;;;;;10.90;84.40;;;;;;5013335;28;19977;-29
2023/01/11 12:15:19;;;;;;;;;;;10.90;84.20;;;;;;5013097;28;19939;-30
2023/01/11 12:17:45;;;;;;;;;;;11.10;84.40;;;;;;5012940;28;20407;-31
2023/01/11 12:20:29;;;;;;;;;;;11.10;84.00;;;;;;5013252;28;19988;-31
2023/01/11 12:23:08;;;;;;;;;;;11.20;82.80;;;;;;5012911;28;19937;-29
2023/01/11 12:25:43;;;;;;;;;;;11.20;82.70;;;;;;5012743;28;20004;-34
2023/01/11 12:28:24;;;;;;;;;;;11.20;82.20;;;;;;5013163;28;19914;-39
2023/01/11 12:31:28;;;;;;;;;;;11.20;82.10;;;;;;5013027;28;19921;-29
2023/01/11 12:34:12;;;;;;;;;;;11.10;82.00;;;;;;4951637;29;20349;-34
2023/01/11 12:36:54;;;;;;;;;;;11.10;82.90;;;;;;4935931;29;19966;-38
2023/01/11 12:39:47;;;;;;;;;;;11.10;82.90;;;;;;4993873;28;19914;-33
2023/01/11 12:42:13;;;;;;;;;;;11.10;82.90;;;;;;5012747;28;19963;-36
2023/01/11 12:44:56;;;;;;;;;;;11.10;83.00;;;;;;5012549;28;20406;-31
2023/01/11 12:47:22;;;;;;;;;;;11.10;82.90;;;;;;5012662;28;19913;-29
2023/01/11 12:50:02;;;;;;;;;;;11.00;81.60;;;;;;5012753;28;20288;-28
2023/01/11 12:53:03;;;;;;;;;;;11.00;81.20;;;;;;5012802;28;19996;-28
2023/01/11 12:55:36;;;;;;;;;;;11.00;80.90;;;;;;4951724;29;19914;-32
2023/01/11 12:58:18;;;;;;;;;;;10.90;80.30;;;;;;5003166;28;20371;-28
2023/01/11 13:00:55;;;;;;;;;;;10.90;80.30;;;;;;5012530;28;19936;-28
2023/01/11 13:03:21;;;;;;;;;;;11.00;80.50;;;;;;5012423;28;20063;-28
2023/01/11 13:05:51;;;;;;;;;;;11.00;80.50;;;;;;4994238;28;19953;-28
2023/01/11 13:08:40;;;;;;;;;;;11.10;80.30;;;;;;5012210;28;20415;-27
2023/01/11 13:11:33;;;;;;;;;;;11.10;80.40;;;;;;5012346;28;19960;-30
2023/01/11 13:14:11;;;;;;;;;;;11.10;78.80;;;;;;5012476;28;19914;-30
2023/01/11 13:16:49;;;;;;;;;;;11.10;78.90;;;;;;5012276;28;19913;-32
2023/01/11 13:19:25;;;;;;;;;;;11.10;79.10;;;;;;5012231;28;20361;-30
2023/01/11 13:21:52;;;;;;;;;;;11.10;79.00;;;;;;5012214;28;19917;-32
2023/01/11 13:24:30;;;;;;;;;;;11.00;79.30;;;;;;5012238;28;19914;-28
2023/01/11 13:27:05;;;;;;;;;;;11.00;79.10;;;;;;5012106;28;19917;-31
2023/01/11 13:29:32;;;;;;;;;;;11.00;79.80;;;;;;5012289;28;19928;-29
2023/01/11 13:31:59;;;;;;;;;;;11.00;79.10;;;;;;5012195;28;20012;-28
2023/01/11 13:34:27;;;;;;;;;;;11.00;78.80;;;;;;4994200;28;20008;-29
2023/01/11 13:37:05;;;;;;;;;;;11.00;78.60;;;;;;5012291;28;20328;-29
2023/01/11 13:39:30;;;;;;;;;;;11.00;79.10;;;;;;5012138;28;19913;-30
2023/01/11 13:42:12;;;;;;;;;;;11.00;78.50;;;;;;5011884;28;19918;-32
2023/01/11 13:44:41;;;;;;;;;;;11.00;78.10;;;;;;5011867;28;19913;-31
2023/01/11 13:47:09;;;;;;;;;;;10.90;78.60;;;;;;5012499;28;19913;-35
2023/01/11 13:49:39;;;;;;;;;;;10.90;78.80;;;;;;5011859;28;19913;-27
2023/01/11 13:52:19;;;;;;;;;;;10.90;78.40;;;;;;5011776;28;19983;-34
2023/01/11 13:55:01;;;;;;;;;;;10.90;78.60;;;;;;5011759;28;19945;-33
2023/01/11 13:57:39;;;;;;;;;;;10.90;79.20;;;;;;5012040;28;19976;-28
2023/01/11 14:00:28;;;;;;;;;;;10.90;79.10;;;;;;5011850;28;19920;-31
2023/01/11 14:02:57;;;;;;;;;;;10.90;77.60;;;;;;5011714;28;19949;-30
2023/01/11 14:05:26;;;;;;;;;;;10.90;78.00;;;;;;5011722;28;20320;-34
2023/01/11 14:08:27;;;;;;;;;;;10.90;77.40;;;;;;5011703;28;19910;-35
2023/01/11 14:11:13;;;;;;;;;;;10.80;77.60;;;;;;4950869;29;20346;-32
2023/01/11 14:14:14;;;;;;;;;;;10.80;77.80;;;;;;5007014;28;19914;-33
2023/01/11 14:16:45;;;;;;;;;;;10.70;77.90;;;;;;5011638;28;19956;-28
2023/01/11 14:19:28;;;;;;;;;;;10.60;78.00;;;;;;5011471;28;20000;-29
2023/01/11 14:22:12;;;;;;;;;;;10.60;78.20;;;;;;5011361;28;19909;-29
2023/01/11 14:24:40;;;;;;;;;;;10.50;78.70;;;;;;5012811;28;19914;-34
2023/01/11 14:27:28;;;;;;;;;;;10.50;79.00;;;;;;5014795;28;19916;-31
2023/01/11 14:30:05;;;;;;;;;;;10.50;79.30;;;;;;4992928;28;20007;-30
2023/01/11 14:32:40;;;;;;;;;;;10.40;79.30;;;;;;5014560;28;19914;-30
2023/01/11 14:35:24;;;;;;;;;;;10.30;79.40;;;;;;5014671;28;20366;-28
2023/01/11 14:38:12;;;;;;;;;;;10.30;79.80;;;;;;5014756;28;20325;-31
2023/01/11 14:40:44;;;;;;;;;;;10.30;80.10;;;;;;4986241;28;20381;-29
2023/01/11 14:43:21;;;;;;;;;;;10.30;80.30;;;;;;5015055;28;20450;-42
2023/01/11 14:45:49;;;;;;;;;;;10.30;80.30;;;;;;5014551;28;19972;-31
2023/01/11 14:48:23;;;;;;;;;;;10.40;80.60;;;;;;5014871;28;19965;-29
2023/01/11 14:51:07;;;;;;;;;;;10.40;80.80;;;;;;5014433;28;19917;-28
2023/01/11 14:53:37;;;;;;;;;;;10.50;80.80;;;;;;5014727;28;20422;-28